createdAt,value
2022-10-23T00:01:41.211Z,64.19
2022-10-23T00:04:16.933Z,63.77
2022-10-23T00:06:44.903Z,64.10
2022-10-23T00:09:16.837Z,64.44
2022-10-23T00:11:47.646Z,64.46
2022-10-23T00:14:16.257Z,64.52
2022-10-23T00:16:43.616Z,64.53
2022-10-23T00:19:11.417Z,64.07
2022-10-23T00:21:39.404Z,64.06
2022-10-23T00:26:38.392Z,64.32
2022-10-23T00:29:05.647Z,64.37
2022-10-23T00:31:33.277Z,64.39
2022-10-23T00:34:00.536Z,64.23
2022-10-23T00:36:27.615Z,64.33
2022-10-23T00:38:55.607Z,64.16
2022-10-23T00:41:29.982Z,64.33
2022-10-23T00:44:05.409Z,64.43
2022-10-23T00:46:33.180Z,64.40
2022-10-23T00:49:01.609Z,64.39
2022-10-23T00:51:36.613Z,64.21
2022-10-23T00:54:23.968Z,64.32
2022-10-23T00:56:55.800Z,64.50
2022-10-23T00:59:24.008Z,64.57
2022-10-23T01:01:51.142Z,64.63
2022-10-23T01:04:18.575Z,64.73
2022-10-23T01:07:03.648Z,64.89
2022-10-23T01:09:42.591Z,64.83
2022-10-23T01:12:38.266Z,64.91
2022-10-23T01:15:30.371Z,65.06
2022-10-23T01:18:06.289Z,64.84
2022-10-23T01:20:39.276Z,64.39
2022-10-23T01:23:50.265Z,64.66
2022-10-23T01:26:44.571Z,64.95
2022-10-23T01:29:36.204Z,65.19
2022-10-23T01:32:22.209Z,64.99
2022-10-23T01:35:03.238Z,64.57
2022-10-23T01:37:59.040Z,64.59
2022-10-23T01:40:38.125Z,64.57
2022-10-23T01:43:13.129Z,64.96
2022-10-23T01:45:46.432Z,64.68
2022-10-23T01:48:22.472Z,64.79
2022-10-23T01:50:51.094Z,64.82
2022-10-23T01:53:20.122Z,64.74
2022-10-23T01:55:49.185Z,64.77
2022-10-23T01:58:23.225Z,64.45
2022-10-23T02:00:53.266Z,63.98
2022-10-23T02:03:21.578Z,64.10
2022-10-23T02:05:49.139Z,64.19
2022-10-23T02:08:16.434Z,64.55
2022-10-23T02:11:03.364Z,64.48
2022-10-23T02:13:39.884Z,64.12
2022-10-23T02:16:44.724Z,64.15
2022-10-23T02:19:28.758Z,64.45
2022-10-23T02:22:26.724Z,64.32
2022-10-23T02:25:12.156Z,64.66
2022-10-23T02:27:48.230Z,64.43
2022-10-23T02:30:19.294Z,64.38
2022-10-23T02:32:54.997Z,64.45
2022-10-23T02:35:25.285Z,64.14
2022-10-23T02:38:02.319Z,64.40
2022-10-23T02:40:42.402Z,64.21
2022-10-23T02:43:24.395Z,64.27
2022-10-23T02:46:26.945Z,64.55
2022-10-23T02:49:26.277Z,64.25
2022-10-23T02:52:33.124Z,64.59
2022-10-23T02:55:41.749Z,64.68
2022-10-23T02:58:40.596Z,64.62
2022-10-23T03:01:19.037Z,64.36
2022-10-23T03:03:52.433Z,64.56
2022-10-23T03:06:20.547Z,64.61
2022-10-23T03:09:14.193Z,64.52
2022-10-23T03:11:41.250Z,64.54
2022-10-23T03:14:08.908Z,64.48
2022-10-23T03:16:36.077Z,64.79
2022-10-23T03:19:03.158Z,64.51
2022-10-23T03:21:30.710Z,64.90
2022-10-23T03:23:57.735Z,64.28
2022-10-23T03:26:33.628Z,64.45
2022-10-23T03:29:00.808Z,64.14
2022-10-23T03:31:27.871Z,64.40
2022-10-23T03:33:59.510Z,64.74
2022-10-23T03:36:26.669Z,65.35
2022-10-23T03:38:54.061Z,65.32
2022-10-23T03:41:21.712Z,65.06
2022-10-23T03:43:48.760Z,65.28
2022-10-23T03:46:16.371Z,65.21
2022-10-23T03:48:43.501Z,65.28
2022-10-23T03:51:11.268Z,65.31
2022-10-23T03:53:40.912Z,65.51
2022-10-23T03:56:07.981Z,65.66
2022-10-23T03:58:35.019Z,65.49
2022-10-23T04:01:02.214Z,65.48
2022-10-23T04:03:29.422Z,65.47
2022-10-23T04:05:56.576Z,65.48
2022-10-23T04:08:24.063Z,65.29
2022-10-23T04:10:55.552Z,65.43
2022-10-23T04:13:41.542Z,65.39
2022-10-23T04:16:09.119Z,65.49
2022-10-23T04:18:36.192Z,65.27
2022-10-23T04:21:03.734Z,65.50
2022-10-23T04:23:30.882Z,65.48
2022-10-23T04:25:58.624Z,65.50
2022-10-23T04:28:27.021Z,65.40
2022-10-23T04:30:55.015Z,65.39
2022-10-23T04:33:22.880Z,65.22
2022-10-23T04:35:51.707Z,65.08
2022-10-23T04:38:18.919Z,64.77
2022-10-23T04:40:46.003Z,64.98
2022-10-23T04:43:15.826Z,65.13
2022-10-23T04:45:43.022Z,65.26
2022-10-23T04:48:10.214Z,65.10
2022-10-23T04:51:06.920Z,65.33
2022-10-23T04:54:09.623Z,65.18
2022-10-23T04:56:42.506Z,65.21
2022-10-23T04:59:14.917Z,65.46
2022-10-23T05:01:42.795Z,65.50
2022-10-23T05:04:10.166Z,65.49
2022-10-23T05:07:03.965Z,65.68
2022-10-23T05:09:42.578Z,65.64
2022-10-23T05:12:20.055Z,65.50
2022-10-23T05:14:47.974Z,65.68
2022-10-23T05:17:28.389Z,65.91
2022-10-23T05:19:59.861Z,65.93
2022-10-23T05:22:31.869Z,66.36
2022-10-23T05:25:01.960Z,66.41
2022-10-23T05:27:32.284Z,66.06
2022-10-23T05:29:59.439Z,65.70
2022-10-23T05:32:32.535Z,65.75
2022-10-23T05:35:04.727Z,65.95
2022-10-23T05:37:32.524Z,65.98
2022-10-23T05:40:08.716Z,65.93
2022-10-23T05:42:40.813Z,65.78
2022-10-23T05:45:10.884Z,66.02
2022-10-23T05:47:49.278Z,65.91
2022-10-23T05:50:37.564Z,65.88
2022-10-23T05:53:17.886Z,65.78
2022-10-23T05:56:09.597Z,66.19
2022-10-23T05:58:59.828Z,66.04
2022-10-23T06:01:44.578Z,65.91
2022-10-23T06:04:16.222Z,66.08
2022-10-23T06:07:02.906Z,65.89
2022-10-23T06:09:30.431Z,65.88
2022-10-23T06:11:58.722Z,65.48
2022-10-23T06:14:25.844Z,65.30
2022-10-23T06:16:54.401Z,65.34
2022-10-23T06:19:22.307Z,64.89
2022-10-23T06:21:54.016Z,64.68
2022-10-23T06:24:27.906Z,64.43
2022-10-23T06:27:02.377Z,64.50
2022-10-23T06:29:41.806Z,64.30
2022-10-23T06:32:09.066Z,63.97
2022-10-23T06:34:37.244Z,63.46
2022-10-23T06:37:05.109Z,63.30
2022-10-23T06:39:41.581Z,63.18
2022-10-23T06:42:21.997Z,63.56
2022-10-23T06:45:09.596Z,63.52
2022-10-23T06:47:42.971Z,63.42
2022-10-23T06:50:16.420Z,63.36
2022-10-23T06:52:47.366Z,63.20
2022-10-23T06:55:17.938Z,62.90
2022-10-23T06:57:46.996Z,62.59
2022-10-23T07:00:14.684Z,62.37
2022-10-23T07:02:52.342Z,61.92
2022-10-23T07:05:20.676Z,61.92
2022-10-23T07:07:48.204Z,61.86
2022-10-23T07:10:22.252Z,61.97
2022-10-23T07:13:00.593Z,61.58
2022-10-23T07:15:41.250Z,61.37
2022-10-23T07:18:15.285Z,60.74
2022-10-23T07:21:08.364Z,60.61
2022-10-23T07:23:35.720Z,60.50
2022-10-23T07:26:16.854Z,60.45
2022-10-23T07:28:46.521Z,60.33
2022-10-23T07:31:18.392Z,60.04
2022-10-23T07:34:04.657Z,60.43
2022-10-23T07:36:32.074Z,60.11
2022-10-23T07:38:59.573Z,59.89
2022-10-23T07:41:27.608Z,59.98
2022-10-23T07:43:57.643Z,59.99
2022-10-23T07:46:24.896Z,59.60
2022-10-23T07:48:52.742Z,59.40
2022-10-23T07:51:20.329Z,58.91
2022-10-23T07:53:55.986Z,59.20
2022-10-23T07:56:55.049Z,58.69
2022-10-23T07:59:37.867Z,58.81
2022-10-23T08:02:13.726Z,58.40
2022-10-23T08:04:41.957Z,58.43
2022-10-23T08:07:29.165Z,58.57
2022-10-23T08:09:57.981Z,58.46
2022-10-23T08:12:26.482Z,58.22
2022-10-23T08:14:55.171Z,57.89
2022-10-23T08:17:26.282Z,57.26
2022-10-23T08:20:06.617Z,57.17
2022-10-23T08:22:40.328Z,56.61
2022-10-23T08:25:09.177Z,56.29
2022-10-23T08:27:36.704Z,56.29
2022-10-23T08:30:05.224Z,56.29
2022-10-23T08:32:32.432Z,56.07
2022-10-23T08:35:00.915Z,55.57
2022-10-23T08:37:31.020Z,55.46
2022-10-23T08:39:58.510Z,55.71
2022-10-23T08:43:12.795Z,55.10
2022-10-23T08:45:55.531Z,53.99
2022-10-23T08:48:48.327Z,53.94
2022-10-23T08:51:47.764Z,53.55
2022-10-23T08:54:20.344Z,53.38
2022-10-23T08:56:59.012Z,52.54
2022-10-23T08:59:39.702Z,52.27
2022-10-23T09:02:28.528Z,52.11
2022-10-23T09:04:58.152Z,51.60
2022-10-23T09:07:43.689Z,51.63
2022-10-23T09:10:51.394Z,51.62
2022-10-23T09:13:38.896Z,51.17
2022-10-23T09:16:21.242Z,51.15
2022-10-23T09:18:49.848Z,51.17
2022-10-23T09:21:17.565Z,51.00
2022-10-23T09:23:44.695Z,50.43
2022-10-23T09:26:17.925Z,49.92
2022-10-23T09:28:57.603Z,49.27
2022-10-23T09:31:24.763Z,49.07
2022-10-23T09:34:01.326Z,48.29
2022-10-23T09:36:29.914Z,47.72
2022-10-23T09:39:00.278Z,47.47
2022-10-23T09:41:37.122Z,48.31
2022-10-23T09:44:30.999Z,47.73
2022-10-23T09:47:07.225Z,47.76
2022-10-23T09:49:35.267Z,47.94
2022-10-23T09:52:08.375Z,48.26
2022-10-23T09:54:44.032Z,48.20
2022-10-23T09:57:38.367Z,48.98
2022-10-23T10:00:21.999Z,48.49
2022-10-23T10:03:05.154Z,48.19
2022-10-23T10:05:45.812Z,48.44
2022-10-23T10:08:21.335Z,48.08
2022-10-23T10:11:00.563Z,48.17
2022-10-23T10:13:33.881Z,48.17
2022-10-23T10:16:21.391Z,47.88
2022-10-23T10:19:02.459Z,47.61
2022-10-23T10:21:45.752Z,46.87
2022-10-23T10:24:30.280Z,46.47
2022-10-23T10:28:00.259Z,47.07
2022-10-23T10:30:39.507Z,47.24
2022-10-23T10:33:21.680Z,46.86
2022-10-23T10:35:59.837Z,46.50
2022-10-23T10:38:49.372Z,46.03
2022-10-23T10:41:41.839Z,45.73
2022-10-23T10:44:21.719Z,45.73
2022-10-23T10:47:17.247Z,45.07
2022-10-23T10:50:26.407Z,44.92
2022-10-23T10:53:47.413Z,44.52
2022-10-23T10:56:19.310Z,43.82
2022-10-23T10:58:55.475Z,43.49
2022-10-23T11:01:33.440Z,42.29
2022-10-23T11:04:26.607Z,41.13
2022-10-23T11:06:55.506Z,39.86
2022-10-23T11:09:29.867Z,39.29
2022-10-23T11:11:58.548Z,38.54
2022-10-23T11:14:30.389Z,37.96
2022-10-23T11:17:17.079Z,37.39
2022-10-23T11:19:59.261Z,37.73
2022-10-23T11:22:57.812Z,37.31
2022-10-23T11:25:41.343Z,37.51
2022-10-23T11:28:53.297Z,37.34
2022-10-23T11:32:05.630Z,37.58
2022-10-23T11:34:32.606Z,38.11
2022-10-23T11:37:04.996Z,37.95
2022-10-23T11:39:34.996Z,36.89
2022-10-23T11:42:31.227Z,34.83
2022-10-23T11:44:58.463Z,33.55
2022-10-23T11:47:39.714Z,32.13
2022-10-23T11:50:07.464Z,31.42
2022-10-23T11:53:09.382Z,31.64
2022-10-23T11:55:39.363Z,33.03
2022-10-23T11:58:23.798Z,35.38
2022-10-23T12:01:27.318Z,37.58
2022-10-23T12:03:58.864Z,39.70
2022-10-23T12:06:42.620Z,40.91
2022-10-23T12:09:36.148Z,41.53
2022-10-23T12:12:09.291Z,42.53
2022-10-23T12:14:40.335Z,42.85
2022-10-23T12:17:24.589Z,43.76
2022-10-23T12:20:12.691Z,43.78
2022-10-23T12:22:39.754Z,43.47
2022-10-23T12:25:17.162Z,43.03
2022-10-23T12:28:22.227Z,42.63
2022-10-23T12:30:56.641Z,43.25
2022-10-23T12:33:32.654Z,43.21
2022-10-23T12:36:32.132Z,42.99
2022-10-23T12:38:59.311Z,42.93
2022-10-23T12:41:31.866Z,42.67
2022-10-23T12:44:02.875Z,42.14
2022-10-23T12:46:53.226Z,41.65
2022-10-23T12:49:24.503Z,40.86
2022-10-23T12:52:14.041Z,40.30
2022-10-23T12:54:41.637Z,40.82
2022-10-23T12:57:25.775Z,40.99
2022-10-23T13:00:10.495Z,42.13
2022-10-23T13:02:37.757Z,42.16
2022-10-23T13:05:13.365Z,41.17
2022-10-23T13:07:47.169Z,40.56
2022-10-23T13:10:19.497Z,39.68
2022-10-23T13:13:06.344Z,39.02
2022-10-23T13:15:56.309Z,38.47
2022-10-23T13:18:49.976Z,38.11
2022-10-23T13:21:29.386Z,37.89
2022-10-23T13:23:56.974Z,38.07
2022-10-23T13:26:45.151Z,38.47
2022-10-23T13:29:34.478Z,39.25
2022-10-23T13:32:12.810Z,39.61
2022-10-23T13:34:39.940Z,39.84
2022-10-23T13:37:27.041Z,39.98
2022-10-23T13:40:19.861Z,39.50
2022-10-23T13:42:57.456Z,39.95
2022-10-23T13:45:26.844Z,39.83
2022-10-23T13:47:54.252Z,39.62
2022-10-23T13:50:21.373Z,39.23
2022-10-23T13:52:48.619Z,37.87
2022-10-23T13:55:26.635Z,37.55
2022-10-23T13:57:53.837Z,37.58
2022-10-23T14:00:21.063Z,38.31
2022-10-23T14:02:48.302Z,38.81
2022-10-23T14:05:15.553Z,38.91
2022-10-23T14:07:43.029Z,39.07
2022-10-23T14:10:10.463Z,39.83
2022-10-23T14:12:44.734Z,41.19
2022-10-23T14:15:12.290Z,41.75
2022-10-23T14:17:39.690Z,41.35
2022-10-23T14:20:07.817Z,40.73
2022-10-23T14:22:34.928Z,40.60
2022-10-23T14:25:02.234Z,40.03
2022-10-23T14:27:30.545Z,40.35
2022-10-23T14:29:59.345Z,41.62
2022-10-23T14:32:26.603Z,42.97
2022-10-23T14:34:54.727Z,43.74
2022-10-23T14:37:22.544Z,44.25
2022-10-23T14:39:50.429Z,44.15
2022-10-23T14:42:18.100Z,44.40
2022-10-23T14:44:45.343Z,44.89
2022-10-23T14:47:12.437Z,45.44
2022-10-23T14:49:40.409Z,45.83
2022-10-23T14:52:08.111Z,46.21
2022-10-23T14:54:36.469Z,46.77
2022-10-23T14:57:04.162Z,47.01
2022-10-23T14:59:31.347Z,47.49
2022-10-23T15:01:58.555Z,47.88
2022-10-23T15:04:25.960Z,48.33
2022-10-23T15:06:53.106Z,48.82
2022-10-23T15:09:20.369Z,49.24
2022-10-23T15:11:48.232Z,49.62
2022-10-23T15:14:15.373Z,50.03
2022-10-23T15:16:42.473Z,50.00
2022-10-23T15:19:15.265Z,50.11
2022-10-23T15:21:46.983Z,50.95
2022-10-23T15:24:15.656Z,51.41
2022-10-23T15:26:43.919Z,51.60
2022-10-23T15:29:11.922Z,51.93
2022-10-23T15:31:40.815Z,52.24
2022-10-23T15:34:20.126Z,52.43
2022-10-23T15:36:49.586Z,52.90
2022-10-23T15:39:21.739Z,52.99
2022-10-23T15:41:53.520Z,53.23
2022-10-23T15:44:23.107Z,53.46
2022-10-23T15:46:51.757Z,53.58
2022-10-23T15:49:19.973Z,53.97
2022-10-23T15:51:47.234Z,53.97
2022-10-23T15:54:17.152Z,54.03
2022-10-23T15:56:49.774Z,53.96
2022-10-23T15:59:18.272Z,54.30
2022-10-23T16:01:45.596Z,54.66
2022-10-23T16:04:13.285Z,54.79
2022-10-23T16:06:42.212Z,55.17
2022-10-23T16:09:09.345Z,55.03
2022-10-23T16:11:39.228Z,55.25
2022-10-23T16:14:07.332Z,55.33
2022-10-23T16:16:35.008Z,55.29
2022-10-23T16:19:03.868Z,55.02
2022-10-23T16:21:35.204Z,55.14
2022-10-23T16:24:05.894Z,55.33
2022-10-23T16:26:33.981Z,55.40
2022-10-23T16:29:05.725Z,55.40
2022-10-23T16:31:33.980Z,55.84
2022-10-23T16:34:03.027Z,56.14
2022-10-23T16:36:30.683Z,55.98
2022-10-23T16:39:21.279Z,56.40
2022-10-23T16:42:07.742Z,56.23
2022-10-23T16:44:54.224Z,56.26
2022-10-23T16:47:21.607Z,56.04
2022-10-23T16:49:48.777Z,56.11
2022-10-23T16:52:16.002Z,55.98
2022-10-23T16:54:44.126Z,56.03
2022-10-23T16:57:11.230Z,56.31
2022-10-23T16:59:38.327Z,55.98
2022-10-23T17:02:05.673Z,56.31
2022-10-23T17:04:32.985Z,56.36
2022-10-23T17:07:00.000Z,56.47
2022-10-23T17:09:31.507Z,56.40
2022-10-23T17:11:59.768Z,56.55
2022-10-23T17:14:29.231Z,56.60
2022-10-23T17:17:01.382Z,56.69
2022-10-23T17:19:46.992Z,56.95
2022-10-23T17:22:16.520Z,57.26
2022-10-23T17:24:47.392Z,57.33
2022-10-23T17:27:17.286Z,57.63
2022-10-23T17:29:44.430Z,57.46
2022-10-23T17:32:11.686Z,57.84
2022-10-23T17:34:38.893Z,57.70
2022-10-23T17:37:05.980Z,57.76
2022-10-23T17:39:33.174Z,57.92
2022-10-23T17:42:00.380Z,58.19
2022-10-23T17:44:30.551Z,58.31
2022-10-23T17:46:57.808Z,58.53
2022-10-23T17:49:25.713Z,58.66
2022-10-23T17:51:57.882Z,58.94
2022-10-23T17:54:27.303Z,59.26
2022-10-23T17:56:54.552Z,59.42
2022-10-23T17:59:22.228Z,59.75
2022-10-23T18:01:50.205Z,59.92
2022-10-23T18:04:20.297Z,60.21
2022-10-23T18:06:51.436Z,60.38
2022-10-23T18:09:20.050Z,60.45
2022-10-23T18:11:48.536Z,60.47
2022-10-23T18:14:20.742Z,60.67
2022-10-23T18:16:48.605Z,60.94
2022-10-23T18:19:18.316Z,61.08
2022-10-23T18:21:47.669Z,61.25
2022-10-23T18:24:15.340Z,61.46
2022-10-23T18:26:43.744Z,61.56
2022-10-23T18:29:12.950Z,61.37
2022-10-23T18:31:41.208Z,61.54
2022-10-23T18:34:22.217Z,61.54
2022-10-23T18:36:51.131Z,61.65
2022-10-23T18:39:22.555Z,61.87
2022-10-23T18:41:53.981Z,61.90
2022-10-23T18:44:22.956Z,61.82
2022-10-23T18:46:50.992Z,61.48
2022-10-23T18:49:20.104Z,61.52
2022-10-23T18:51:49.749Z,61.40
2022-10-23T18:54:19.073Z,61.21
2022-10-23T18:56:46.322Z,61.23
2022-10-23T18:59:18.252Z,61.45
2022-10-23T19:01:45.572Z,61.38
2022-10-23T19:04:15.874Z,61.58
2022-10-23T19:06:43.907Z,61.33
2022-10-23T19:09:14.005Z,61.48
2022-10-23T19:11:41.924Z,61.68
2022-10-23T19:14:09.882Z,61.82
2022-10-23T19:17:03.495Z,61.50
2022-10-23T19:19:40.684Z,61.66
2022-10-23T19:22:09.021Z,61.70
2022-10-23T19:24:45.357Z,61.85
2022-10-23T19:27:12.568Z,61.94
2022-10-23T19:29:43.594Z,61.71
2022-10-23T19:32:11.479Z,61.64
2022-10-23T19:34:38.624Z,61.66
2022-10-23T19:37:05.812Z,61.36
2022-10-23T19:39:33.100Z,61.10
2022-10-23T19:42:00.465Z,60.99
2022-10-23T19:44:27.756Z,60.75
2022-10-23T19:46:54.887Z,60.70
2022-10-23T19:49:23.839Z,60.70
2022-10-23T19:51:51.668Z,60.71
2022-10-23T19:54:20.797Z,60.64
2022-10-23T19:56:49.098Z,60.62
2022-10-23T19:59:16.560Z,60.52
2022-10-23T20:01:46.484Z,60.30
2022-10-23T20:04:18.279Z,60.10
2022-10-23T20:06:45.888Z,60.12
2022-10-23T20:09:13.076Z,60.03
2022-10-23T20:11:40.955Z,59.87
2022-10-23T20:14:09.668Z,59.60
2022-10-23T20:16:39.473Z,59.57
2022-10-23T20:19:10.857Z,59.61
2022-10-23T20:21:41.775Z,59.59
2022-10-23T20:24:11.031Z,59.69
2022-10-23T20:26:44.309Z,59.73
2022-10-23T20:29:12.000Z,59.64
2022-10-23T20:31:43.386Z,59.94
2022-10-23T20:34:11.654Z,60.21
2022-10-23T20:36:48.225Z,59.74
2022-10-23T20:39:25.473Z,59.58
2022-10-23T20:41:55.311Z,59.69
2022-10-23T20:44:23.664Z,59.69
2022-10-23T20:46:51.875Z,59.72
2022-10-23T20:49:19.557Z,59.45
2022-10-23T20:51:54.900Z,59.40
2022-10-23T20:54:28.896Z,59.12
2022-10-23T20:56:57.145Z,59.11
2022-10-23T20:59:24.678Z,58.90
2022-10-23T21:01:55.277Z,58.81
2022-10-23T21:04:27.579Z,58.71
2022-10-23T21:07:09.434Z,58.44
2022-10-23T21:09:40.579Z,58.51
2022-10-23T21:12:08.401Z,58.60
2022-10-23T21:14:36.581Z,58.06
2022-10-23T21:17:04.606Z,58.06
2022-10-23T21:19:31.768Z,57.82
2022-10-23T21:21:58.813Z,57.90
2022-10-23T21:24:25.898Z,57.80
2022-10-23T21:26:52.953Z,57.80
2022-10-23T21:29:20.747Z,57.66
2022-10-23T21:32:01.078Z,57.64
2022-10-23T21:34:30.579Z,57.82
2022-10-23T21:37:14.702Z,58.05
2022-10-23T21:39:46.269Z,58.13
2022-10-23T21:42:15.266Z,57.89
2022-10-23T21:44:42.527Z,58.11
2022-10-23T21:47:09.786Z,58.55
2022-10-23T21:49:36.951Z,59.41
2022-10-23T21:52:05.173Z,60.02
2022-10-23T21:54:32.352Z,60.28
2022-10-23T21:56:59.394Z,60.31
2022-10-23T21:59:30.158Z,60.15
2022-10-23T22:01:59.353Z,60.50
2022-10-23T22:04:26.663Z,61.34
2022-10-23T22:06:53.740Z,61.61
2022-10-23T22:09:22.099Z,61.84
2022-10-23T22:11:53.849Z,62.33
2022-10-23T22:14:21.891Z,62.45
2022-10-23T22:16:49.840Z,62.63
2022-10-23T22:19:18.088Z,62.67
2022-10-23T22:21:46.015Z,62.84
2022-10-23T22:24:13.902Z,62.42
2022-10-23T22:26:44.938Z,62.17
2022-10-23T22:29:17.230Z,62.58
2022-10-23T22:31:49.712Z,62.60
2022-10-23T22:34:34.141Z,62.29
2022-10-23T22:37:12.450Z,61.87
2022-10-23T22:39:39.611Z,62.06
2022-10-23T22:42:06.899Z,62.64
2022-10-23T22:44:33.996Z,62.89
2022-10-23T22:47:01.133Z,62.94
2022-10-23T22:49:28.324Z,63.45
2022-10-23T22:51:55.413Z,63.49
2022-10-23T22:54:22.472Z,63.67
2022-10-23T22:56:49.528Z,63.78
2022-10-23T22:59:16.559Z,64.10
2022-10-23T23:01:47.353Z,63.87
2022-10-23T23:04:37.933Z,63.94
2022-10-23T23:07:07.784Z,63.87
2022-10-23T23:09:45.048Z,63.92
2022-10-23T23:12:14.026Z,64.31
2022-10-23T23:14:42.079Z,64.57
2022-10-23T23:17:10.035Z,64.34
2022-10-23T23:19:37.051Z,64.20
2022-10-23T23:22:04.742Z,64.34
2022-10-23T23:24:32.194Z,64.42
2022-10-23T23:26:59.348Z,64.70
2022-10-23T23:29:28.439Z,64.66
2022-10-23T23:31:55.451Z,64.30
2022-10-23T23:34:22.504Z,64.86
2022-10-23T23:36:49.532Z,65.10
2022-10-23T23:39:16.937Z,65.17
2022-10-23T23:41:43.924Z,65.08
2022-10-23T23:44:10.945Z,64.59
2022-10-23T23:46:38.001Z,64.79
2022-10-23T23:49:05.130Z,64.69
2022-10-23T23:51:32.352Z,65.13
2022-10-23T23:53:59.439Z,65.85
2022-10-23T23:56:26.436Z,65.81
2022-10-23T23:58:53.485Z,66.24
